KBNA

Nashville International Airport

Nashville, Tennessee, USA
METAR KBNA 160953Z 17003KT 10SM CLR M01/M05 A3022 RMK AO2 SLP236 T10111050
Observed Flight Rules
Dec-16 @ 09:53 UTC (an hour ago) Visual Flight Rules
Wind Visibility Clouds
170° at 3 knots 10 miles
  • Clear skies
Temperatures Readings
Current -1°C / 30°F
Dewpoint -5°C / 23°F
Humidity 75%
Altimeter 30.22" Hg
Pressure 1023.6 hPa
Elevation 210
METAR KBNA 160953Z 17003KT 10SM CLR M01/M05 A3022 RMK AO2 SLP236 T10111050
Observed Flight Rules
Dec-16 @ 09:53 UTC
(an hour ago)
VFR
Wind Visibility
170° at 3 knots 10 miles
Clouds
  • Clear skies
Temperature Dewpoint
-1°C / 30°F -5°C / 23°F
Humidity Altimeter Pressure
75% 30.22" Hg 1023.6 hPa